Historique des stations

Station météo de Romilly-sur-Aigre

Altitude de la station : 111 m







Données météorologiques pour le 18/05/2022
Date
Heure
Températures Humidité Point de rosée Vitesse
du vent
Direction Rafales Windchill Pression Pluviométrie
Cumul
Date
Heure
Températures Humidité Point de rosée Vitesse
du vent
Direction Rafales Windchill Pression Pluviométrie
Cumul
18/05/2022 16:0128.6 °C56 %18.9 °C13 km/hENE23 km/h18.91017 hPa0.0 mm
18/05/2022 15:5628.5 °C58 %19.4 °C15 km/hE23 km/h19.41017 hPa0.0 mm
18/05/2022 15:4628.3 °C59 %19.6 °C13 km/hE21 km/h19.61017 hPa0.0 mm
18/05/2022 15:4128.2 °C58 %19.2 °C21 km/hE23 km/h19.21017 hPa0.0 mm
18/05/2022 15:3128.2 °C58 %19.1 °C11 km/hE24 km/h19.11018 hPa0.0 mm
18/05/2022 15:2628.2 °C56 %18.6 °C19 km/hE19 km/h18.61018 hPa0.0 mm
18/05/2022 15:2128.2 °C57 %18.9 °C15 km/hE21 km/h18.91018 hPa0.0 mm
18/05/2022 15:1127.9 °C62 %20.0 °C21 km/hENE24 km/h20.01018 hPa0.0 mm
18/05/2022 15:0627.8 °C61 %19.6 °C11 km/hE23 km/h19.61018 hPa0.0 mm
18/05/2022 14:5627.8 °C56 %18.2 °C8 km/hENE21 km/h18.21018 hPa0.0 mm
18/05/2022 14:5127.7 °C57 %18.4 °C11 km/hENE19 km/h18.41018 hPa0.0 mm
18/05/2022 14:4127.4 °C59 %18.7 °C10 km/hENE19 km/h18.71018 hPa0.0 mm
18/05/2022 14:3627.2 °C60 %18.7 °C10 km/hENE18 km/h18.71018 hPa0.0 mm
18/05/2022 14:2626.9 °C67 %20.2 °C8 km/hNE18 km/h20.21018 hPa0.0 mm
18/05/2022 14:2126.6 °C66 %19.7 °C8 km/hNE16 km/h19.71018 hPa0.0 mm
18/05/2022 14:1126.3 °C64 %18.9 °C11 km/hNE19 km/h18.91018 hPa0.0 mm
18/05/2022 14:0626.2 °C67 %19.6 °C8 km/hNE19 km/h19.61019 hPa0.0 mm
18/05/2022 13:5625.8 °C68 %19.5 °C11 km/hNE16 km/h19.51019 hPa0.0 mm
18/05/2022 13:5125.8 °C65 %18.7 °C8 km/hNE19 km/h18.71019 hPa0.0 mm
18/05/2022 13:4125.6 °C66 %18.8 °C5 km/hNE16 km/h18.81019 hPa0.0 mm
18/05/2022 13:3625.4 °C68 %19.1 °C5 km/hNE16 km/h19.11019 hPa0.0 mm
18/05/2022 13:2625.3 °C70 %19.5 °C2 km/hNE15 km/h19.51019 hPa0.0 mm
18/05/2022 13:2125.3 °C71 %19.6 °C6 km/hNE15 km/h19.61019 hPa0.0 mm
18/05/2022 13:1124.8 °C70 %19.0 °C6 km/hNNE11 km/h19.01020 hPa0.0 mm
18/05/2022 13:0624.8 °C72 %19.4 °C5 km/hENE15 km/h19.41020 hPa0.0 mm
18/05/2022 12:5624.7 °C74 %19.7 °C11 km/hNE16 km/h19.71020 hPa0.0 mm
18/05/2022 12:5124.2 °C75 %19.5 °C6 km/hNE16 km/h19.51020 hPa0.0 mm
18/05/2022 12:4124.2 °C76 %19.7 °C11 km/hNE15 km/h19.71020 hPa0.0 mm
18/05/2022 12:3623.8 °C75 %19.1 °C5 km/hNNE13 km/h19.11020 hPa0.0 mm
18/05/2022 12:2623.5 °C78 %19.4 °C3 km/hNNE13 km/h19.41020 hPa0.0 mm
18/05/2022 12:2123.3 °C77 %19.1 °C5 km/hNNE11 km/h19.11020 hPa0.0 mm
18/05/2022 12:1122.8 °C80 %19.1 °C10 km/hNNE15 km/h19.11020 hPa0.0 mm
18/05/2022 12:0622.7 °C80 %19.0 °C6 km/hNNE15 km/h19.01020 hPa0.0 mm
18/05/2022 11:5622.4 °C82 %19.2 °C5 km/hNNE15 km/h19.21020 hPa0.0 mm
18/05/2022 11:4621.9 °C82 %18.7 °C5 km/hNE15 km/h18.71020 hPa0.0 mm
18/05/2022 11:4121.7 °C84 %18.8 °C3 km/hNE15 km/h18.81020 hPa0.0 mm
18/05/2022 11:3621.3 °C85 %18.7 °C5 km/hNNE15 km/h18.71021 hPa0.0 mm
18/05/2022 11:2620.8 °C87 %18.6 °C5 km/hN15 km/h18.61021 hPa0.0 mm
18/05/2022 11:1620.3 °C87 %18.1 °C5 km/hNE15 km/h18.11020 hPa0.0 mm
18/05/2022 11:1119.9 °C90 %18.3 °C5 km/hNE18 km/h18.31021 hPa0.0 mm
18/05/2022 11:0119.2 °C90 %17.5 °C5 km/hNNE13 km/h17.51021 hPa0.0 mm
18/05/2022 10:5619.1 °C90 %17.4 °C5 km/hN13 km/h17.41021 hPa0.0 mm
18/05/2022 10:5118.8 °C89 %17.0 °C5 km/hNNE13 km/h17.01021 hPa0.0 mm
18/05/2022 10:4118.8 °C91 %17.3 °C3 km/hNNE15 km/h17.31021 hPa0.0 mm
18/05/2022 10:3118.4 °C92 %17.1 °C6 km/hNNE15 km/h17.11021 hPa0.0 mm
18/05/2022 10:2618.2 °C93 %17.1 °C10 km/hNE15 km/h17.11021 hPa0.0 mm
18/05/2022 10:1617.9 °C94 %16.9 °C6 km/hNNE13 km/h16.91021 hPa0.0 mm
18/05/2022 10:1117.8 °C94 %16.8 °C11 km/hNNE13 km/h16.81021 hPa0.0 mm
18/05/2022 10:0117.6 °C95 %16.7 °C5 km/hNNE13 km/h16.71021 hPa0.0 mm
18/05/2022 09:5617.4 °C95 %16.6 °C5 km/hNNE13 km/h16.61021 hPa0.0 mm
18/05/2022 09:4617.2 °C96 %16.5 °C6 km/hNNE13 km/h16.51021 hPa0.0 mm
18/05/2022 09:4117.1 °C96 %16.4 °C5 km/hN11 km/h16.41021 hPa0.0 mm
18/05/2022 09:3116.8 °C96 %16.2 °C5 km/hNNE13 km/h16.21021 hPa0.0 mm
18/05/2022 09:2616.8 °C96 %16.1 °C3 km/hNNE13 km/h16.11021 hPa0.0 mm
18/05/2022 09:1616.6 °C96 %15.9 °C6 km/hNNE13 km/h15.91021 hPa0.0 mm
18/05/2022 09:1116.6 °C96 %15.9 °C10 km/hN15 km/h15.91021 hPa0.0 mm
18/05/2022 09:0116.4 °C97 %16.0 °C8 km/hNE16 km/h16.01021 hPa0.0 mm
18/05/2022 08:5616.4 °C97 %15.9 °C5 km/hNE16 km/h15.91021 hPa0.0 mm
18/05/2022 08:4616.2 °C97 %15.7 °C10 km/hNE18 km/h15.71020 hPa0.0 mm
18/05/2022 08:4116.2 °C97 %15.7 °C6 km/hNNE18 km/h15.71020 hPa0.0 mm
18/05/2022 08:3115.9 °C97 %15.5 °C6 km/hNE18 km/h15.51020 hPa0.0 mm
18/05/2022 08:2615.9 °C97 %15.5 °C6 km/hNNE18 km/h15.51020 hPa0.0 mm
18/05/2022 08:1615.8 °C97 %15.4 °C6 km/hNNE16 km/h15.41020 hPa0.0 mm
18/05/2022 08:1115.7 °C97 %15.2 °C8 km/hNE16 km/h15.21021 hPa0.0 mm
18/05/2022 08:0115.6 °C97 %15.1 °C10 km/hNE16 km/h15.11020 hPa0.0 mm
18/05/2022 07:5615.4 °C97 %15.0 °C8 km/hNE18 km/h15.01020 hPa0.0 mm
18/05/2022 07:4614.9 °C98 %14.6 °C6 km/hNNE15 km/h14.61020 hPa0.0 mm
18/05/2022 07:4114.7 °C98 %14.4 °C8 km/hNNE13 km/h14.41020 hPa0.0 mm
18/05/2022 07:3113.7 °C97 %13.3 °C---13.31020 hPa0.0 mm
18/05/2022 07:2613.3 °C97 %12.9 °C---12.91020 hPa0.0 mm
18/05/2022 07:1612.8 °C96 %12.2 °C---12.21020 hPa0.0 mm
18/05/2022 07:1112.7 °C96 %12.1 °C---12.11020 hPa0.0 mm
18/05/2022 07:0112.7 °C96 %12.1 °C---12.11020 hPa0.0 mm
18/05/2022 06:5612.7 °C96 %12.1 °C---12.11020 hPa0.0 mm
18/05/2022 06:4612.6 °C96 %11.9 °C---11.91020 hPa0.0 mm
18/05/2022 06:4112.6 °C96 %11.9 °C---11.91020 hPa0.0 mm
18/05/2022 06:3112.4 °C96 %11.8 °C---11.81020 hPa0.0 mm
18/05/2022 06:2612.6 °C96 %11.9 °C---11.91020 hPa0.0 mm
18/05/2022 06:1612.3 °C97 %11.9 °C---11.91020 hPa0.0 mm
18/05/2022 06:1112.0 °C96 %11.4 °C---11.41020 hPa0.0 mm
18/05/2022 06:0111.6 °C96 %10.9 °C---10.91020 hPa0.0 mm
18/05/2022 05:5611.6 °C95 %10.8 °C---10.81020 hPa0.0 mm
18/05/2022 05:4611.6 °C95 %10.8 °C---10.81020 hPa0.0 mm
18/05/2022 05:4111.7 °C95 %10.9 °C---10.91020 hPa0.0 mm
18/05/2022 05:3111.7 °C95 %10.9 °C---10.91020 hPa0.0 mm
18/05/2022 05:2611.7 °C95 %10.9 °C---10.91020 hPa0.0 mm
18/05/2022 05:1611.7 °C94 %10.7 °C---10.71020 hPa0.0 mm
18/05/2022 05:1111.9 °C94 %11.0 °C---11.01020 hPa0.0 mm
18/05/2022 05:0112.3 °C94 %11.3 °C---11.31019 hPa0.0 mm
18/05/2022 04:5612.4 °C95 %11.7 °C---11.71019 hPa0.0 mm
18/05/2022 04:4612.4 °C94 %11.5 °C---11.51019 hPa0.0 mm
18/05/2022 04:4112.6 °C94 %11.6 °C---11.61019 hPa0.0 mm
18/05/2022 04:3112.6 °C95 %11.8 °C---11.81019 hPa0.0 mm
18/05/2022 04:2612.5 °C94 %11.6 °C---11.61019 hPa0.0 mm
18/05/2022 04:1612.8 °C93 %11.7 °C---11.71019 hPa0.0 mm
18/05/2022 04:1113.1 °C94 %12.2 °C---12.21019 hPa0.0 mm
18/05/2022 04:0113.4 °C94 %12.4 °C---12.41019 hPa0.0 mm
18/05/2022 03:5613.3 °C94 %12.4 °C---12.41019 hPa0.0 mm
18/05/2022 03:4613.6 °C93 %12.5 °C---12.51019 hPa0.0 mm
18/05/2022 03:4113.9 °C93 %12.8 °C---12.81019 hPa0.0 mm
18/05/2022 03:3114.3 °C93 %13.2 °C---13.21019 hPa0.0 mm
18/05/2022 03:2614.4 °C93 %13.3 °C---13.31019 hPa0.0 mm
18/05/2022 03:1614.7 °C93 %13.5 °C---13.51019 hPa0.0 mm
18/05/2022 03:1114.8 °C93 %13.7 °C---13.71019 hPa0.0 mm
18/05/2022 03:0115.1 °C93 %14.0 °C---14.01019 hPa0.0 mm
18/05/2022 02:5615.2 °C92 %13.9 °C---13.91019 hPa0.0 mm
18/05/2022 02:4615.6 °C92 %14.3 °C-ONO3 km/h14.31019 hPa0.0 mm
18/05/2022 02:4115.7 °C92 %14.4 °C-ONO3 km/h14.41019 hPa0.0 mm
18/05/2022 02:3115.8 °C92 %14.5 °C2 km/hONO5 km/h14.51019 hPa0.0 mm
18/05/2022 02:2616.0 °C92 %14.7 °C3 km/hONO5 km/h14.71019 hPa0.0 mm
18/05/2022 02:1616.3 °C92 %15.0 °C2 km/hONO5 km/h15.01019 hPa0.0 mm
18/05/2022 02:1116.4 °C91 %14.9 °C2 km/hONO5 km/h14.91019 hPa0.0 mm
18/05/2022 02:0116.7 °C91 %15.2 °C-ONO5 km/h15.21019 hPa0.0 mm
18/05/2022 01:5616.8 °C91 %15.3 °C-ONO5 km/h15.31019 hPa0.0 mm
18/05/2022 01:4617.0 °C90 %15.3 °C3 km/hONO10 km/h15.31019 hPa0.0 mm
18/05/2022 01:4117.1 °C90 %15.5 °C-ONO10 km/h15.51018 hPa0.0 mm
18/05/2022 01:3117.6 °C89 %15.7 °C2 km/hNO6 km/h15.71019 hPa0.0 mm
18/05/2022 01:2617.8 °C89 %15.9 °C-NW11 km/h15.91018 hPa0.0 mm
18/05/2022 01:1618.2 °C88 %16.1 °C6 km/hONO11 km/h16.11018 hPa0.0 mm
18/05/2022 01:1118.2 °C88 %16.2 °C6 km/hONO13 km/h16.21018 hPa0.0 mm
18/05/2022 01:0118.4 °C88 %16.4 °C6 km/hO15 km/h16.41018 hPa0.0 mm
18/05/2022 00:5618.4 °C88 %16.4 °C6 km/hONO18 km/h16.41018 hPa0.0 mm
18/05/2022 00:4618.6 °C88 %16.5 °C10 km/hO16 km/h16.51018 hPa0.0 mm
18/05/2022 00:4118.6 °C88 %16.6 °C5 km/hONO16 km/h16.61018 hPa0.0 mm
18/05/2022 00:3118.8 °C88 %16.7 °C8 km/hO16 km/h16.71018 hPa0.0 mm
18/05/2022 00:2618.9 °C88 %16.9 °C10 km/hO16 km/h16.91018 hPa0.0 mm
18/05/2022 00:1619.1 °C88 %17.0 °C10 km/hO18 km/h17.01018 hPa0.0 mm
18/05/2022 00:1119.2 °C88 %17.1 °C6 km/hONO19 km/h17.11018 hPa0.0 mm
18/05/2022 00:0119.3 °C88 %17.3 °C6 km/hO19 km/h17.31018 hPa0.0 mm


Minima :

Température : 11.6 °C
Humidité : 56 %
Point de rosée : 10.7 °C
Vent moyen : 2 km/h
Windchill : 10.7
Pression atm. : 1017 hPa
Maxima :

Température : 28.6 °C
Humidité : 98 %
Point de rosée : 20.2 °C
Vent moyen : 21 km/h
Windchill : 20.2
Pression atm. : 1021 hPa
Rafales max : 24 km/h
Cumul de pluie sur 24H : 0 mm

Romilly-sur-Aigre est une commune du département Eure-et-Loir (28).
La station météorologique du réseau de l'association la plus proche de Romilly-sur-Aigre est celle de Mainvilliers
Site du propriétaire de la station : http://www.sohade.fr



Icône Facebook Association Météo Centre Icône Twitter Association Météo Centre Icône Chaîne Youtube Association Météo Centre Icône contact Association Météo Centre Icône Insta Association Météo Centre